Time;durP1;ratioP1;P1;durP2;ratioP2;P2;SDS_P1;SDS_P2;PMS_P1;PMS_P2;Temp;Humidity;BMP_temperature;BMP_pressure;BME280_temperature;BME280_humidity;BME280_pressure;Samples;Min_cycle;Max_cycle;Signal;HPM_P1;HPM_P2
2024/01/19 00:00:33;;;;;;;;;;;-0.50;99.90;;;;;;5100777;27;19923;-77
2024/01/19 00:03:00;;;;;;;;;;;-0.60;99.90;;;;;;5098760;28;19928;-77
2024/01/19 00:05:27;;;;;;;;;;;-0.50;99.90;;;;;;5098741;28;19924;-77
2024/01/19 00:07:54;;;;;;;;;;;-0.60;99.90;;;;;;5102210;27;19954;-77
2024/01/19 00:10:21;;;;;;;;;;;-0.60;99.90;;;;;;5101972;28;19958;-77
2024/01/19 00:12:48;;;;;;;;;;;-0.60;99.90;;;;;;5100890;28;19943;-76
2024/01/19 00:15:14;;;;;;;;;;;-0.60;99.90;;;;;;5102194;27;19928;-77
2024/01/19 00:17:41;;;;;;;;;;;-0.60;99.90;;;;;;5089279;28;19939;-76
2024/01/19 00:20:09;;;;;;;;;;;-0.60;99.90;;;;;;5102816;28;20611;-77
2024/01/19 00:22:36;;;;;;;;;;;-0.60;99.90;;;;;;5096473;27;20038;-76
2024/01/19 00:25:05;;;;;;;;;;;-0.60;99.90;;;;;;5099719;28;19951;-77
2024/01/19 00:27:31;;;;;;;;;;;-0.60;99.90;;;;;;5101343;27;19938;-77
2024/01/19 00:29:58;;;;;;;;;;;-0.60;99.90;;;;;;5082288;28;20339;-77
2024/01/19 00:32:24;;;;;;;;;;;-0.60;99.90;;;;;;5099030;27;19939;-77
2024/01/19 00:34:51;;;;;;;;;;;-0.60;99.90;;;;;;5100244;28;19936;-77
2024/01/19 00:37:18;;;;;;;;;;;-0.60;99.90;;;;;;5099506;28;19928;-77
2024/01/19 00:39:44;;;;;;;;;;;-0.60;99.90;;;;;;5082640;28;19932;-76
2024/01/19 00:42:12;;;;;;;;;;;-0.60;99.90;;;;;;5100334;27;20392;-76
2024/01/19 00:44:39;;;;;;;;;;;-0.60;99.90;;;;;;5100957;28;20308;-77
2024/01/19 00:47:05;;;;;;;;;;;-0.60;99.90;;;;;;5099277;27;19927;-77
2024/01/19 00:49:32;;;;;;;;;;;-0.60;99.90;;;;;;5099254;28;20488;-77
2024/01/19 00:51:59;;;;;;;;;;;-0.60;99.90;;;;;;5099958;28;19946;-76
2024/01/19 00:54:25;;;;;;;;;;;-0.60;99.90;;;;;;5102014;27;19939;-76
2024/01/19 00:56:52;;;;;;;;;;;-0.60;99.90;;;;;;5102494;27;19927;-77
2024/01/19 00:59:20;;;;;;;;;;;-0.70;99.90;;;;;;5097504;28;19935;-77
2024/01/19 01:01:46;;;;;;;;;;;-0.60;99.90;;;;;;5100178;27;19928;-76
2024/01/19 01:04:14;;;;;;;;;;;-0.60;99.90;;;;;;5102399;28;20214;-77
2024/01/19 01:06:40;;;;;;;;;;;-0.60;99.90;;;;;;5102915;27;19949;-76
2024/01/19 01:09:07;;;;;;;;;;;-0.60;99.90;;;;;;5098847;28;19935;-76
2024/01/19 01:11:33;;;;;;;;;;;-0.60;99.90;;;;;;5107469;27;20106;-76
2024/01/19 01:14:00;;;;;;;;;;;-0.60;99.90;;;;;;5098060;28;19927;-77
2024/01/19 01:16:29;;;;;;;;;;;-0.60;99.90;;;;;;5097508;28;19928;-77
2024/01/19 01:18:57;;;;;;;;;;;-0.60;99.90;;;;;;5098738;27;19924;-77
2024/01/19 01:21:24;;;;;;;;;;;-0.70;99.90;;;;;;5100286;27;19927;-76
2024/01/19 01:23:51;;;;;;;;;;;-0.60;99.90;;;;;;5099248;28;20471;-76
2024/01/19 01:26:18;;;;;;;;;;;-0.70;99.90;;;;;;5097966;28;19934;-76
2024/01/19 01:28:45;;;;;;;;;;;-0.70;99.90;;;;;;5097038;28;19970;-77
2024/01/19 01:31:11;;;;;;;;;;;-0.60;99.90;;;;;;5095779;28;19938;-77
2024/01/19 01:33:39;;;;;;;;;;;-0.60;99.90;;;;;;5099022;27;20524;-76
2024/01/19 01:36:06;;;;;;;;;;;-0.60;99.90;;;;;;5077861;28;20020;-76
2024/01/19 01:38:32;;;;;;;;;;;-0.60;99.90;;;;;;5096248;28;19938;-76
2024/01/19 01:40:59;;;;;;;;;;;-0.60;99.90;;;;;;5091832;28;19975;-77
2024/01/19 01:43:26;;;;;;;;;;;-0.60;99.90;;;;;;5096407;28;19932;-76
2024/01/19 01:45:53;;;;;;;;;;;-0.70;99.90;;;;;;5099024;28;20030;-76
2024/01/19 01:48:20;;;;;;;;;;;-0.60;99.90;;;;;;5084756;28;21419;-77
2024/01/19 01:50:49;;;;;;;;;;;-0.70;99.90;;;;;;5098061;28;19935;-76
2024/01/19 01:53:18;;;;;;;;;;;-0.60;99.90;;;;;;5097989;28;20388;-76
2024/01/19 01:55:44;;;;;;;;;;;-0.60;99.90;;;;;;5100431;28;19927;-77
2024/01/19 01:58:11;;;;;;;;;;;-0.60;99.90;;;;;;5095622;28;20376;-76
2024/01/19 02:00:38;;;;;;;;;;;-0.70;99.90;;;;;;5097895;28;19939;-77
2024/01/19 02:03:05;;;;;;;;;;;0.00;99.90;;;;;;5100322;28;19928;-77
2024/01/19 02:05:32;;;;;;;;;;;-0.70;99.90;;;;;;5100652;28;19992;-76
2024/01/19 02:08:00;;;;;;;;;;;-0.70;99.90;;;;;;5100027;28;19928;-77
2024/01/19 02:10:27;;;;;;;;;;;-0.70;99.90;;;;;;5097562;28;19928;-76
2024/01/19 02:12:54;;;;;;;;;;;-0.70;99.90;;;;;;5100220;28;20022;-76
2024/01/19 02:15:21;;;;;;;;;;;-0.60;99.90;;;;;;5079029;28;20022;-77
2024/01/19 02:17:49;;;;;;;;;;;-0.70;99.90;;;;;;5101300;28;20459;-76
2024/01/19 02:20:16;;;;;;;;;;;-0.70;99.90;;;;;;5098586;28;19939;-76
2024/01/19 02:22:43;;;;;;;;;;;-0.60;99.90;;;;;;5098725;28;19928;-76
2024/01/19 02:25:11;;;;;;;;;;;-0.60;99.90;;;;;;5087723;28;20046;-76
2024/01/19 02:27:38;;;;;;;;;;;-0.60;99.90;;;;;;5102288;28;19939;-76
2024/01/19 02:30:07;;;;;;;;;;;-0.60;99.90;;;;;;5096755;28;19952;-76
2024/01/19 02:32:33;;;;;;;;;;;-0.60;99.90;;;;;;5080211;28;19931;-76
2024/01/19 02:35:00;;;;;;;;;;;-0.70;99.90;;;;;;5097141;28;19931;-76
2024/01/19 02:37:27;;;;;;;;;;;-0.60;99.90;;;;;;5095378;28;19928;-76
2024/01/19 02:39:53;;;;;;;;;;;-0.60;99.90;;;;;;5083632;28;19948;-76
2024/01/19 02:42:21;;;;;;;;;;;-0.60;99.90;;;;;;5098257;28;19931;-77
2024/01/19 02:44:48;;;;;;;;;;;-0.60;99.90;;;;;;5096554;28;19935;-76
2024/01/19 02:47:14;;;;;;;;;;;-0.60;99.90;;;;;;5094686;28;19935;-76
2024/01/19 02:49:41;;;;;;;;;;;-0.60;99.90;;;;;;5079717;28;19975;-76
2024/01/19 02:52:07;;;;;;;;;;;-0.60;99.90;;;;;;5096242;28;19935;-76
2024/01/19 02:54:34;;;;;;;;;;;-0.60;99.90;;;;;;5096165;28;19927;-76
2024/01/19 02:57:00;;;;;;;;;;;-0.60;99.90;;;;;;5095471;28;19931;-76
2024/01/19 02:59:29;;;;;;;;;;;-0.60;99.90;;;;;;5096208;28;19934;-76
2024/01/19 03:01:55;;;;;;;;;;;-0.60;99.90;;;;;;5095102;28;20015;-77
2024/01/19 03:04:22;;;;;;;;;;;-0.60;99.90;;;;;;5101298;27;19928;-76
2024/01/19 03:06:48;;;;;;;;;;;-0.60;99.90;;;;;;5103782;27;19938;-76
2024/01/19 03:09:15;;;;;;;;;;;-0.60;99.90;;;;;;5102109;28;19938;-77
2024/01/19 03:11:41;;;;;;;;;;;-0.60;99.90;;;;;;5097727;28;19928;-76
2024/01/19 03:14:09;;;;;;;;;;;-0.60;99.90;;;;;;5101965;27;19935;-76
2024/01/19 03:16:42;;;;;;;;;;;-0.60;99.90;;;;;;5101004;27;19932;-77
2024/01/19 03:19:08;;;;;;;;;;;-0.60;99.90;;;;;;5102472;27;19951;-77
2024/01/19 03:21:35;;;;;;;;;;;-0.60;99.90;;;;;;5101705;28;19935;-77
2024/01/19 03:24:01;;;;;;;;;;;-0.50;99.90;;;;;;5099432;28;19928;-77
2024/01/19 03:26:28;;;;;;;;;;;-0.60;99.90;;;;;;5105301;27;19928;-77
2024/01/19 03:28:55;;;;;;;;;;;-0.60;99.90;;;;;;5083484;28;20014;-77
2024/01/19 03:31:22;;;;;;;;;;;-0.60;99.90;;;;;;5101218;28;19947;-77
2024/01/19 03:33:50;;;;;;;;;;;-0.60;99.90;;;;;;5101978;27;19931;-76
2024/01/19 03:36:16;;;;;;;;;;;-0.50;99.90;;;;;;5101538;27;19927;-77
2024/01/19 03:38:43;;;;;;;;;;;-0.60;99.90;;;;;;5102281;28;19932;-77
2024/01/19 03:41:10;;;;;;;;;;;-0.60;99.90;;;;;;5096682;28;19928;-77
2024/01/19 03:43:36;;;;;;;;;;;-0.50;99.90;;;;;;5101575;28;19954;-77
2024/01/19 03:46:03;;;;;;;;;;;-0.50;99.90;;;;;;5099930;28;19938;-76
2024/01/19 03:48:30;;;;;;;;;;;-0.60;99.90;;;;;;5098729;28;19928;-77
2024/01/19 03:50:58;;;;;;;;;;;-0.60;99.90;;;;;;5096831;27;19967;-77
2024/01/19 03:53:24;;;;;;;;;;;-0.50;99.90;;;;;;5098740;28;20432;-76
2024/01/19 03:55:51;;;;;;;;;;;-0.50;99.90;;;;;;5097535;28;19934;-77
2024/01/19 03:58:18;;;;;;;;;;;-0.50;99.90;;;;;;5097886;28;19958;-77
2024/01/19 04:00:44;;;;;;;;;;;-0.60;99.90;;;;;;5101082;28;20299;-77
2024/01/19 04:03:11;;;;;;;;;;;-0.50;99.90;;;;;;5093468;28;19971;-77
2024/01/19 04:05:37;;;;;;;;;;;-0.50;99.90;;;;;;5098099;27;20041;-76
2024/01/19 04:08:06;;;;;;;;;;;-0.50;99.90;;;;;;5095270;28;20609;-77
2024/01/19 04:10:32;;;;;;;;;;;-0.50;99.90;;;;;;5094807;28;20467;-77
2024/01/19 04:12:59;;;;;;;;;;;-0.50;99.90;;;;;;5099693;27;19929;-77
2024/01/19 04:15:25;;;;;;;;;;;-0.50;99.90;;;;;;5094087;28;19935;-77
2024/01/19 04:17:52;;;;;;;;;;;-0.50;99.90;;;;;;5094572;27;19935;-76
2024/01/19 04:20:19;;;;;;;;;;;-0.50;99.90;;;;;;5098819;27;20908;-77
2024/01/19 04:22:45;;;;;;;;;;;-0.50;99.90;;;;;;5097767;28;19935;-77
2024/01/19 04:25:13;;;;;;;;;;;-0.50;99.90;;;;;;5099887;28;19932;-77
2024/01/19 04:27:40;;;;;;;;;;;-0.50;99.90;;;;;;5101681;28;19935;-77
2024/01/19 04:30:07;;;;;;;;;;;-0.50;99.90;;;;;;5082245;28;19928;-77
2024/01/19 04:32:34;;;;;;;;;;;-0.50;99.90;;;;;;5099713;28;19934;-77
2024/01/19 04:35:02;;;;;;;;;;;-0.50;99.90;;;;;;5095737;28;19931;-77
2024/01/19 04:37:29;;;;;;;;;;;-0.50;99.90;;;;;;5099014;27;20633;-77
2024/01/19 04:39:55;;;;;;;;;;;-0.50;99.90;;;;;;5095961;28;20419;-77
2024/01/19 04:42:23;;;;;;;;;;;-0.40;99.90;;;;;;5096670;28;19934;-76
2024/01/19 04:44:51;;;;;;;;;;;-0.40;99.90;;;;;;5097350;28;19932;-77
2024/01/19 04:47:17;;;;;;;;;;;-0.40;99.90;;;;;;5098705;27;19927;-77
2024/01/19 04:49:44;;;;;;;;;;;-0.50;99.90;;;;;;5099220;27;20552;-77
2024/01/19 04:52:11;;;;;;;;;;;-0.40;99.90;;;;;;5100331;27;19927;-77
2024/01/19 04:54:37;;;;;;;;;;;-0.40;99.90;;;;;;5098373;28;19928;-77
2024/01/19 04:57:04;;;;;;;;;;;-0.40;99.90;;;;;;5094928;27;20572;-77
2024/01/19 04:59:32;;;;;;;;;;;-0.40;99.90;;;;;;5097343;27;19932;-77
2024/01/19 05:01:58;;;;;;;;;;;-0.40;99.90;;;;;;5097682;28;19939;-77
2024/01/19 05:04:25;;;;;;;;;;;-0.50;99.90;;;;;;5099701;28;19939;-77
2024/01/19 05:06:52;;;;;;;;;;;-0.50;99.90;;;;;;5101619;28;19924;-77
2024/01/19 05:09:18;;;;;;;;;;;-0.50;99.90;;;;;;5098287;28;19938;-77
2024/01/19 05:11:45;;;;;;;;;;;-0.50;99.90;;;;;;5102334;28;20316;-77
2024/01/19 05:14:11;;;;;;;;;;;-0.30;99.90;;;;;;5100218;28;19946;-77
2024/01/19 05:16:39;;;;;;;;;;;-0.50;99.90;;;;;;5099402;27;19934;-77
2024/01/19 05:19:07;;;;;;;;;;;-0.50;99.90;;;;;;5096589;28;19928;-76
2024/01/19 05:21:33;;;;;;;;;;;-0.50;99.90;;;;;;5086329;28;19928;-77
2024/01/19 05:24:00;;;;;;;;;;;-0.50;99.90;;;;;;5097367;28;19927;-77
2024/01/19 05:26:27;;;;;;;;;;;-0.50;99.90;;;;;;5096096;27;20416;-77
2024/01/19 05:28:53;;;;;;;;;;;-0.50;99.90;;;;;;5100511;27;19939;-77
2024/01/19 05:31:20;;;;;;;;;;;-0.50;99.90;;;;;;5100418;27;20579;-76
2024/01/19 05:33:48;;;;;;;;;;;-0.50;99.90;;;;;;5096966;28;19932;-76
2024/01/19 05:36:14;;;;;;;;;;;-0.50;99.90;;;;;;5097448;28;19927;-77
2024/01/19 05:38:41;;;;;;;;;;;-0.50;99.90;;;;;;5098307;28;19942;-77
2024/01/19 05:41:07;;;;;;;;;;;-0.50;99.90;;;;;;5100495;27;19927;-77
2024/01/19 05:43:34;;;;;;;;;;;-0.50;99.90;;;;;;5099258;28;19927;-77
2024/01/19 05:46:01;;;;;;;;;;;-0.50;99.90;;;;;;5084181;28;19928;-77
2024/01/19 05:48:27;;;;;;;;;;;-0.50;99.90;;;;;;5101158;28;19931;-77
2024/01/19 05:50:55;;;;;;;;;;;-0.60;99.90;;;;;;5095309;28;19934;-76
2024/01/19 05:53:22;;;;;;;;;;;-0.50;99.90;;;;;;5095691;28;19931;-77
2024/01/19 05:55:48;;;;;;;;;;;-0.50;99.90;;;;;;5096009;28;20388;-77
2024/01/19 05:58:15;;;;;;;;;;;-0.50;99.90;;;;;;5097250;28;20424;-77
2024/01/19 06:00:41;;;;;;;;;;;-0.50;99.90;;;;;;5094021;28;20086;-77
2024/01/19 06:03:08;;;;;;;;;;;-0.50;99.90;;;;;;5098281;28;20412;-77
2024/01/19 06:05:35;;;;;;;;;;;-0.60;99.90;;;;;;5084605;27;19935;-76
2024/01/19 06:08:04;;;;;;;;;;;-0.60;99.90;;;;;;5097838;28;19927;-76
2024/01/19 06:10:30;;;;;;;;;;;-0.60;99.90;;;;;;5104382;28;19934;-77
2024/01/19 06:12:57;;;;;;;;;;;-0.50;99.90;;;;;;5099866;28;19932;-77
2024/01/19 06:15:24;;;;;;;;;;;-0.60;99.90;;;;;;5097128;28;19931;-76
2024/01/19 06:17:50;;;;;;;;;;;-0.60;99.90;;;;;;5088471;28;19959;-76
2024/01/19 06:20:17;;;;;;;;;;;-0.60;99.90;;;;;;5096591;28;20393;-77
2024/01/19 06:22:44;;;;;;;;;;;-0.60;99.90;;;;;;5098431;28;19931;-77
2024/01/19 06:25:12;;;;;;;;;;;-0.60;99.90;;;;;;5100363;28;19935;-77
2024/01/19 06:27:39;;;;;;;;;;;-0.60;99.90;;;;;;5100406;28;19928;-76
2024/01/19 06:30:06;;;;;;;;;;;-0.60;99.90;;;;;;5099103;28;19936;-77
2024/01/19 06:32:32;;;;;;;;;;;-0.60;99.90;;;;;;5101702;28;19932;-77
2024/01/19 06:34:59;;;;;;;;;;;-0.60;99.90;;;;;;5103141;28;19936;-77
2024/01/19 06:37:25;;;;;;;;;;;-0.70;99.90;;;;;;5105243;27;19928;-77
2024/01/19 06:39:52;;;;;;;;;;;-0.60;99.90;;;;;;5089463;28;19928;-77
2024/01/19 06:42:22;;;;;;;;;;;-0.60;99.90;;;;;;5105324;28;21261;-78
2024/01/19 06:44:48;;;;;;;;;;;-0.70;99.90;;;;;;5089875;27;19927;-78
2024/01/19 06:47:18;;;;;;;;;;;-0.70;99.90;;;;;;5105408;28;19962;-78
2024/01/19 06:49:44;;;;;;;;;;;-0.70;99.90;;;;;;5105178;28;20007;-77
2024/01/19 06:52:11;;;;;;;;;;;-0.70;99.90;;;;;;5088022;28;20023;-77
2024/01/19 06:54:37;;;;;;;;;;;-0.70;99.90;;;;;;5088083;28;19938;-77
2024/01/19 06:57:04;;;;;;;;;;;-0.70;99.90;;;;;;5100961;28;19936;-77
2024/01/19 06:59:32;;;;;;;;;;;-0.70;99.90;;;;;;5106367;28;20397;-77
2024/01/19 07:01:59;;;;;;;;;;;-0.70;99.90;;;;;;5103793;28;19995;-77
2024/01/19 07:04:26;;;;;;;;;;;-0.80;99.90;;;;;;5092016;28;19975;-78
2024/01/19 07:06:52;;;;;;;;;;;-0.70;99.90;;;;;;5100469;27;19942;-78
2024/01/19 07:09:19;;;;;;;;;;;-0.80;99.90;;;;;;5106847;28;19935;-77
2024/01/19 07:11:46;;;;;;;;;;;-0.80;99.90;;;;;;5103564;28;20022;-76
2024/01/19 07:14:13;;;;;;;;;;;-0.80;99.90;;;;;;5103449;27;19938;-77
2024/01/19 07:16:41;;;;;;;;;;;-0.80;99.90;;;;;;5106275;27;20478;-77
2024/01/19 07:19:07;;;;;;;;;;;-0.80;99.90;;;;;;5105970;28;20393;-77
2024/01/19 07:21:36;;;;;;;;;;;-0.80;99.90;;;;;;5104057;27;19928;-78
2024/01/19 07:24:03;;;;;;;;;;;-0.80;99.90;;;;;;5105529;28;20602;-77
2024/01/19 07:26:30;;;;;;;;;;;-0.80;99.90;;;;;;5105679;27;19935;-76
2024/01/19 07:28:57;;;;;;;;;;;-0.90;99.90;;;;;;5102707;27;19931;-77
2024/01/19 07:31:23;;;;;;;;;;;-0.80;99.90;;;;;;5107341;28;19934;-78
2024/01/19 07:33:52;;;;;;;;;;;-0.90;99.90;;;;;;5099877;27;20489;-77
2024/01/19 07:36:18;;;;;;;;;;;-0.80;99.90;;;;;;5090318;28;20015;-78
2024/01/19 07:38:45;;;;;;;;;;;-0.90;99.90;;;;;;5105297;28;19927;-78
2024/01/19 07:41:12;;;;;;;;;;;-0.90;99.90;;;;;;5105714;28;20412;-77
2024/01/19 07:43:38;;;;;;;;;;;-0.80;99.90;;;;;;5109541;28;20032;-78
2024/01/19 07:46:05;;;;;;;;;;;-0.90;99.90;;;;;;5108157;28;19963;-77
2024/01/19 07:48:32;;;;;;;;;;;-0.90;99.90;;;;;;5108789;28;19928;-78
2024/01/19 07:51:00;;;;;;;;;;;-0.90;99.90;;;;;;5086399;28;19999;-78
2024/01/19 07:53:26;;;;;;;;;;;-0.90;99.90;;;;;;5111061;28;19935;-77
2024/01/19 07:55:53;;;;;;;;;;;-0.90;99.90;;;;;;5109904;27;19924;-77
2024/01/19 07:58:20;;;;;;;;;;;-0.90;99.90;;;;;;5090628;28;20477;-79
2024/01/19 08:00:47;;;;;;;;;;;-0.80;99.90;;;;;;5108455;28;20020;-79
2024/01/19 08:03:14;;;;;;;;;;;-0.90;99.90;;;;;;5110846;27;19927;-78
2024/01/19 08:05:41;;;;;;;;;;;-0.80;99.90;;;;;;5109486;27;19978;-78
2024/01/19 08:08:08;;;;;;;;;;;-0.90;99.90;;;;;;5106442;28;19950;-78
2024/01/19 08:10:36;;;;;;;;;;;-0.90;99.90;;;;;;5106990;28;20376;-78
2024/01/19 08:13:03;;;;;;;;;;;-0.80;99.90;;;;;;5106503;27;19924;-78
2024/01/19 08:15:29;;;;;;;;;;;-0.80;99.90;;;;;;5106396;28;19928;-78
2024/01/19 08:17:56;;;;;;;;;;;-0.80;99.90;;;;;;5108296;28;19974;-77
2024/01/19 08:20:24;;;;;;;;;;;-0.80;99.90;;;;;;5105994;27;19928;-77
2024/01/19 08:22:53;;;;;;;;;;;-0.80;99.90;;;;;;5103623;27;19928;-78
2024/01/19 08:25:21;;;;;;;;;;;-0.80;99.90;;;;;;5102852;27;19932;-77
2024/01/19 08:27:48;;;;;;;;;;;-0.80;99.90;;;;;;5104554;28;20271;-78
2024/01/19 08:30:18;;;;;;;;;;;-0.80;99.90;;;;;;5104066;28;19987;-78
2024/01/19 08:32:45;;;;;;;;;;;-0.80;99.90;;;;;;5107945;28;19942;-78
2024/01/19 08:35:12;;;;;;;;;;;-0.80;99.90;;;;;;5107901;28;20066;-78
2024/01/19 08:37:39;;;;;;;;;;;-0.80;99.90;;;;;;5107735;27;20704;-77
2024/01/19 08:40:06;;;;;;;;;;;-0.80;99.90;;;;;;5102729;27;19928;-77
2024/01/19 08:42:35;;;;;;;;;;;-0.80;99.90;;;;;;5098807;27;20365;-77
2024/01/19 08:45:02;;;;;;;;;;;-0.70;99.90;;;;;;5073362;28;20319;-76
2024/01/19 08:47:28;;;;;;;;;;;-0.70;99.90;;;;;;5106032;28;19931;-77
2024/01/19 08:49:56;;;;;;;;;;;-0.70;99.90;;;;;;5086761;28;20035;-78
2024/01/19 08:52:22;;;;;;;;;;;-0.70;99.90;;;;;;5104063;27;19933;-78
2024/01/19 08:54:49;;;;;;;;;;;-0.70;99.90;;;;;;5107080;28;19938;-78
2024/01/19 08:57:16;;;;;;;;;;;-0.70;99.90;;;;;;5087219;28;20396;-78
2024/01/19 08:59:45;;;;;;;;;;;-0.70;99.90;;;;;;5102851;28;19932;-78
2024/01/19 09:02:12;;;;;;;;;;;-0.70;99.90;;;;;;5100432;28;19957;-78
2024/01/19 09:04:39;;;;;;;;;;;-0.70;99.90;;;;;;5103857;27;20467;-77
2024/01/19 09:07:06;;;;;;;;;;;-0.70;99.90;;;;;;5109632;27;20328;-78
2024/01/19 09:09:32;;;;;;;;;;;-0.80;99.90;;;;;;5099870;28;20352;-78
2024/01/19 09:11:59;;;;;;;;;;;-0.70;99.90;;;;;;5111166;28;19939;-78
2024/01/19 09:14:27;;;;;;;;;;;-0.70;99.90;;;;;;5092909;28;19928;-78
2024/01/19 09:16:55;;;;;;;;;;;-0.70;99.90;;;;;;5107145;27;20024;-78
2024/01/19 09:19:21;;;;;;;;;;;-0.80;99.90;;;;;;5100676;28;19928;-79
2024/01/19 09:21:50;;;;;;;;;;;-0.70;99.90;;;;;;5105187;28;19932;-78
2024/01/19 09:24:17;;;;;;;;;;;-0.70;99.90;;;;;;5109017;27;19942;-78
2024/01/19 09:26:45;;;;;;;;;;;-0.80;99.90;;;;;;5107305;28;19982;-79
2024/01/19 09:29:12;;;;;;;;;;;-0.70;99.90;;;;;;5105737;27;19971;-79
2024/01/19 09:31:41;;;;;;;;;;;-0.70;99.90;;;;;;5107039;28;19928;-78
2024/01/19 09:34:09;;;;;;;;;;;-0.70;99.90;;;;;;5110313;27;20710;-77
2024/01/19 09:36:36;;;;;;;;;;;-0.70;99.90;;;;;;5110640;28;19924;-79
2024/01/19 09:39:05;;;;;;;;;;;-0.70;99.90;;;;;;5105670;28;19932;-79
2024/01/19 09:41:35;;;;;;;;;;;-0.70;99.90;;;;;;5106409;28;19928;-78
2024/01/19 09:44:04;;;;;;;;;;;-0.80;99.90;;;;;;5106300;27;19928;-77
2024/01/19 09:46:33;;;;;;;;;;;-0.70;99.90;;;;;;5084316;28;20342;-77
2024/01/19 09:49:04;;;;;;;;;;;-0.70;99.90;;;;;;5090961;28;20019;-78
2024/01/19 09:51:54;;;;;;;;;;;-0.70;99.90;;;;;;5105537;28;19932;-77
2024/01/19 09:54:24;;;;;;;;;;;-0.70;99.90;;;;;;5109054;28;19928;-77
2024/01/19 09:56:53;;;;;;;;;;;-0.70;99.90;;;;;;5106077;28;19931;-78
2024/01/19 09:59:20;;;;;;;;;;;-0.70;99.90;;;;;;5104635;27;19931;-78
2024/01/19 10:01:48;;;;;;;;;;;-0.60;99.90;;;;;;5110248;28;19935;-78
2024/01/19 10:04:16;;;;;;;;;;;-0.60;99.90;;;;;;5111091;27;19955;-78
2024/01/19 10:06:45;;;;;;;;;;;-0.60;99.90;;;;;;5112285;28;19928;-79
2024/01/19 10:09:12;;;;;;;;;;;-0.60;99.90;;;;;;5112437;28;20099;-78
2024/01/19 10:11:40;;;;;;;;;;;-0.60;99.90;;;;;;5111451;28;19928;-77
2024/01/19 10:14:07;;;;;;;;;;;-0.60;99.90;;;;;;5107292;28;19935;-79
2024/01/19 10:16:34;;;;;;;;;;;-0.50;99.90;;;;;;5104079;28;19931;-77
2024/01/19 10:19:03;;;;;;;;;;;-0.50;99.90;;;;;;5107732;28;20011;-77
2024/01/19 10:21:30;;;;;;;;;;;-0.50;99.90;;;;;;5092000;28;19943;-77
2024/01/19 10:24:10;;;;;;;;;;;-0.50;99.90;;;;;;5104770;28;19928;-76
2024/01/19 10:26:37;;;;;;;;;;;-0.50;99.90;;;;;;5083869;28;19927;-78
2024/01/19 10:29:10;;;;;;;;;;;-0.40;99.90;;;;;;5099328;28;19950;-79
2024/01/19 10:31:37;;;;;;;;;;;-0.40;99.90;;;;;;5104889;28;20035;-79
2024/01/19 10:34:04;;;;;;;;;;;-0.40;99.90;;;;;;5106983;28;20121;-80
2024/01/19 10:36:37;;;;;;;;;;;-0.30;99.90;;;;;;5098576;28;19924;-77
2024/01/19 10:39:17;;;;;;;;;;;-0.30;99.90;;;;;;5099244;28;19936;-80
2024/01/19 10:41:44;;;;;;;;;;;-0.30;99.90;;;;;;5102783;28;20038;-78
2024/01/19 10:44:11;;;;;;;;;;;-0.30;99.90;;;;;;5101941;28;20013;-81
2024/01/19 10:46:38;;;;;;;;;;;-0.30;99.90;;;;;;5104099;28;19928;-80
2024/01/19 10:49:05;;;;;;;;;;;-0.30;99.90;;;;;;5103428;28;19959;-79
2024/01/19 10:51:35;;;;;;;;;;;0.00;99.90;;;;;;5103804;28;20459;-79
2024/01/19 10:54:02;;;;;;;;;;;0.10;99.90;;;;;;5106070;28;20561;-79
2024/01/19 10:56:30;;;;;;;;;;;0.20;99.90;;;;;;5102405;28;20440;-81
2024/01/19 10:59:09;;;;;;;;;;;0.30;99.90;;;;;;5102284;28;19927;-79
2024/01/19 11:01:36;;;;;;;;;;;0.30;99.90;;;;;;5100504;28;19928;-80
2024/01/19 11:04:02;;;;;;;;;;;0.50;99.90;;;;;;5076506;28;19938;-80
2024/01/19 11:06:29;;;;;;;;;;;0.50;99.90;;;;;;5098495;28;19957;-79
2024/01/19 11:08:56;;;;;;;;;;;0.50;99.90;;;;;;5107331;28;19924;-78
2024/01/19 11:11:26;;;;;;;;;;;0.60;99.90;;;;;;5111328;28;19970;-78
2024/01/19 11:13:54;;;;;;;;;;;0.60;99.90;;;;;;5091286;28;19928;-78
2024/01/19 11:16:22;;;;;;;;;;;0.70;99.90;;;;;;5110350;28;19932;-78
2024/01/19 11:18:50;;;;;;;;;;;0.80;99.90;;;;;;5106070;28;20296;-78
2024/01/19 11:21:17;;;;;;;;;;;0.80;99.90;;;;;;5090985;28;19932;-78
2024/01/19 11:23:44;;;;;;;;;;;0.80;99.90;;;;;;5112199;28;19928;-79
2024/01/19 11:26:14;;;;;;;;;;;0.80;99.90;;;;;;5117505;27;19935;-78
2024/01/19 11:28:47;;;;;;;;;;;0.80;99.90;;;;;;5114720;28;19931;-78
2024/01/19 11:31:17;;;;;;;;;;;0.90;99.90;;;;;;5120705;27;19948;-79
2024/01/19 11:33:45;;;;;;;;;;;0.80;99.90;;;;;;5116562;28;19935;-78
2024/01/19 11:36:12;;;;;;;;;;;0.90;99.90;;;;;;5119071;27;19928;-78
2024/01/19 11:38:41;;;;;;;;;;;0.90;99.90;;;;;;5114818;27;19928;-77
2024/01/19 11:41:10;;;;;;;;;;;0.90;99.90;;;;;;5115457;27;20035;-78
2024/01/19 11:43:37;;;;;;;;;;;0.90;99.90;;;;;;5114941;28;19936;-79
2024/01/19 11:46:04;;;;;;;;;;;0.90;99.90;;;;;;5075581;28;19932;-78
2024/01/19 11:48:49;;;;;;;;;;;0.90;99.90;;;;;;5086511;27;19935;-78
2024/01/19 11:54:11;;;;;;;;;;;1.00;99.90;;;;;;5143180;27;19919;-73
2024/01/19 11:56:38;;;;;;;;;;;1.00;99.90;;;;;;5123720;27;19927;-74
2024/01/19 11:59:04;;;;;;;;;;;1.00;99.90;;;;;;5124015;27;19932;-74
2024/01/19 12:01:39;;;;;;;;;;;1.00;99.90;;;;;;5087401;27;20536;-75
2024/01/19 12:04:05;;;;;;;;;;;1.10;99.90;;;;;;5053252;28;19933;-75
2024/01/19 12:06:32;;;;;;;;;;;1.10;99.90;;;;;;5058790;28;19928;-75
2024/01/19 12:08:59;;;;;;;;;;;1.10;99.90;;;;;;5054176;28;19940;-74
2024/01/19 12:11:27;;;;;;;;;;;1.10;99.90;;;;;;5058567;28;19929;-73
2024/01/19 12:13:53;;;;;;;;;;;1.10;99.90;;;;;;5058795;28;20398;-73
2024/01/19 12:16:20;;;;;;;;;;;1.10;99.90;;;;;;5057392;28;20397;-73
2024/01/19 12:18:47;;;;;;;;;;;1.10;99.90;;;;;;5054903;28;19928;-75
2024/01/19 12:21:14;;;;;;;;;;;1.10;99.90;;;;;;5054017;28;19933;-75
2024/01/19 12:23:42;;;;;;;;;;;1.20;99.90;;;;;;5059810;28;19936;-75
2024/01/19 12:26:08;;;;;;;;;;;1.20;99.90;;;;;;5051261;28;19979;-75
2024/01/19 12:28:36;;;;;;;;;;;1.20;99.90;;;;;;5059417;28;19936;-75
2024/01/19 12:31:03;;;;;;;;;;;1.20;99.90;;;;;;5056970;28;20390;-76
2024/01/19 12:33:30;;;;;;;;;;;1.20;99.90;;;;;;5058964;28;19933;-75
2024/01/19 12:36:04;;;;;;;;;;;1.20;99.90;;;;;;5053016;28;19933;-75
2024/01/19 12:38:31;;;;;;;;;;;1.20;99.90;;;;;;5057708;28;19976;-74
2024/01/19 12:40:58;;;;;;;;;;;1.20;99.90;;;;;;5059289;28;19928;-75
2024/01/19 12:43:28;;;;;;;;;;;1.20;99.90;;;;;;5058458;28;19929;-76
2024/01/19 12:46:01;;;;;;;;;;;1.20;99.90;;;;;;5059776;28;20043;-75
2024/01/19 12:48:28;;;;;;;;;;;1.20;99.90;;;;;;5060524;28;20342;-72
2024/01/19 12:50:54;;;;;;;;;;;1.20;99.90;;;;;;5055897;28;19983;-76
2024/01/19 12:53:21;;;;;;;;;;;1.20;99.90;;;;;;5054139;28;19944;-76
2024/01/19 12:55:51;;;;;;;;;;;1.20;99.90;;;;;;5052514;28;19974;-75
2024/01/19 12:58:22;;;;;;;;;;;1.20;99.90;;;;;;5057031;28;19980;-75
2024/01/19 13:00:48;;;;;;;;;;;1.20;99.90;;;;;;5044595;28;19983;-75
2024/01/19 13:03:19;;;;;;;;;;;1.20;99.90;;;;;;5051308;28;20405;-78
2024/01/19 13:05:45;;;;;;;;;;;1.20;99.90;;;;;;5042140;28;19928;-79
2024/01/19 13:08:12;;;;;;;;;;;1.20;99.90;;;;;;5040007;28;19928;-78
2024/01/19 13:10:39;;;;;;;;;;;1.20;99.90;;;;;;5038215;28;19940;-78
2024/01/19 13:13:07;;;;;;;;;;;1.20;99.90;;;;;;5036386;28;19936;-78
2024/01/19 13:15:33;;;;;;;;;;;1.20;99.90;;;;;;5039695;28;19929;-77
2024/01/19 13:18:07;;;;;;;;;;;1.20;99.90;;;;;;5037202;28;19956;-77
2024/01/19 13:20:35;;;;;;;;;;;1.20;99.90;;;;;;5039506;28;19933;-77
2024/01/19 13:23:01;;;;;;;;;;;1.20;99.90;;;;;;5035596;28;19940;-78
2024/01/19 13:25:28;;;;;;;;;;;1.20;99.90;;;;;;5041359;28;19928;-77
2024/01/19 13:27:55;;;;;;;;;;;1.20;99.90;;;;;;5037844;28;19940;-78
2024/01/19 13:30:22;;;;;;;;;;;1.20;99.90;;;;;;5039791;28;19933;-77
2024/01/19 13:32:49;;;;;;;;;;;1.20;99.90;;;;;;5041431;28;20029;-77
2024/01/19 13:35:15;;;;;;;;;;;1.20;99.90;;;;;;5040124;28;19929;-78
2024/01/19 13:37:43;;;;;;;;;;;1.20;99.90;;;;;;5041094;28;20035;-77
2024/01/19 13:40:11;;;;;;;;;;;1.20;99.90;;;;;;5035911;28;19940;-77
2024/01/19 13:42:39;;;;;;;;;;;1.20;99.90;;;;;;5035495;28;19931;-78
2024/01/19 13:45:08;;;;;;;;;;;1.20;99.90;;;;;;5037014;28;19932;-77
2024/01/19 13:47:34;;;;;;;;;;;1.20;99.90;;;;;;5039373;28;20412;-77
2024/01/19 13:50:02;;;;;;;;;;;1.20;99.90;;;;;;5042807;28;19936;-77
2024/01/19 13:52:28;;;;;;;;;;;1.20;99.90;;;;;;5037427;28;22348;-77
2024/01/19 13:54:56;;;;;;;;;;;1.30;99.90;;;;;;5040376;28;19933;-78
2024/01/19 13:57:23;;;;;;;;;;;1.20;99.90;;;;;;5036191;28;19929;-77
2024/01/19 13:59:50;;;;;;;;;;;1.30;99.90;;;;;;5036580;28;19982;-77
2024/01/19 14:02:17;;;;;;;;;;;1.30;99.90;;;;;;5036441;28;19929;-78
2024/01/19 14:04:44;;;;;;;;;;;1.30;99.90;;;;;;5037568;28;19940;-79
2024/01/19 14:07:14;;;;;;;;;;;1.30;99.90;;;;;;5040736;28;20023;-78
2024/01/19 14:09:41;;;;;;;;;;;1.30;99.90;;;;;;5041471;28;19964;-77
2024/01/19 14:12:09;;;;;;;;;;;1.30;99.90;;;;;;5040410;28;19929;-77
2024/01/19 14:14:37;;;;;;;;;;;1.30;99.90;;;;;;5038985;28;19935;-79
2024/01/19 14:17:04;;;;;;;;;;;1.30;99.90;;;;;;5035118;28;19940;-78
2024/01/19 14:19:30;;;;;;;;;;;1.30;99.90;;;;;;5036495;28;19933;-70
2024/01/19 14:21:57;;;;;;;;;;;1.30;99.90;;;;;;5036327;28;20319;-69
2024/01/19 14:24:23;;;;;;;;;;;1.30;99.90;;;;;;5038470;28;19986;-70